Time;durP1;ratioP1;P1;durP2;ratioP2;P2;SDS_P1;SDS_P2;PMS_P1;PMS_P2;Temp;Humidity;BMP_temperature;BMP_pressure;BME280_temperature;BME280_humidity;BME280_pressure;Samples;Min_cycle;Max_cycle;Signal;HPM_P1;HPM_P2
2021/07/30 00:02:19;;;;;;;7.50;2.87;;;;;;;16.53;58.95;100945.75;3589187;40;20253;-74
2021/07/30 00:04:44;;;;;;;5.90;2.73;;;;;;;16.48;58.72;100947.50;3589064;40;20245;-74
2021/07/30 00:07:09;;;;;;;7.70;3.03;;;;;;;16.53;58.64;100950.09;3589067;40;20311;-74
2021/07/30 00:09:34;;;;;;;8.57;2.80;;;;;;;16.51;58.83;100941.44;3588960;40;20237;-74
2021/07/30 00:11:59;;;;;;;5.27;2.63;;;;;;;16.47;58.99;100947.50;3588890;40;20264;-74
2021/07/30 00:14:25;;;;;;;9.50;3.13;;;;;;;16.47;58.90;100943.19;3588645;40;20221;-74
2021/07/30 00:16:50;;;;;;;7.03;3.20;;;;;;;16.44;59.08;100948.38;3588846;40;20596;-74
2021/07/30 00:19:15;;;;;;;4.33;2.93;;;;;;;16.36;59.26;100941.47;3588543;40;20334;-74
2021/07/30 00:21:41;;;;;;;5.13;2.80;;;;;;;16.28;59.49;100946.66;3588975;40;20229;-74
2021/07/30 00:24:06;;;;;;;7.07;2.90;;;;;;;16.24;59.20;100949.22;3579636;40;20366;-74
2021/07/30 00:26:31;;;;;;;9.60;3.23;;;;;;;16.12;60.12;100951.84;3588879;40;20571;-74
2021/07/30 00:28:56;;;;;;;5.73;2.67;;;;;;;15.85;61.46;100949.28;3588592;40;20244;-74
2021/07/30 00:31:22;;;;;;;10.40;3.23;;;;;;;15.85;61.38;100949.28;3588667;40;20217;-74
2021/07/30 00:33:47;;;;;;;6.43;3.00;;;;;;;15.65;61.70;100943.28;3588705;40;20239;-74
2021/07/30 00:36:12;;;;;;;6.87;2.80;;;;;;;15.39;62.65;100958.75;3588775;40;20499;-74
2021/07/30 00:38:37;;;;;;;8.43;2.90;;;;;;;15.51;62.34;100945.00;3588697;40;20233;-74
2021/07/30 00:41:03;;;;;;;7.00;3.30;;;;;;;15.49;62.64;100947.56;3579140;40;20325;-74
2021/07/30 00:43:29;;;;;;;5.10;2.93;;;;;;;15.22;63.57;100942.31;3588330;40;20221;-74
2021/07/30 00:45:55;;;;;;;9.53;3.40;;;;;;;15.34;62.71;100949.25;3588627;40;20224;-74
2021/07/30 00:48:21;;;;;;;7.80;3.30;;;;;;;15.47;62.38;100946.69;3588383;40;20269;-74
2021/07/30 00:50:47;;;;;;;6.50;3.30;;;;;;;15.49;62.26;100937.25;3588641;40;20240;-74
2021/07/30 00:53:13;;;;;;;11.00;3.43;;;;;;;15.60;62.20;100938.09;3587599;40;20241;-74
2021/07/30 00:55:40;;;;;;;6.20;3.10;;;;;;;15.51;62.56;100945.84;3588512;40;20308;-74
2021/07/30 00:58:05;;;;;;;8.77;2.87;;;;;;;15.35;63.25;100946.69;3588789;40;20521;-74
2021/07/30 01:00:30;;;;;;;7.13;3.03;;;;;;;15.31;63.31;100941.47;3593810;40;20244;-74
2021/07/30 01:02:59;;;;;;;6.50;2.80;;;;;;;15.16;63.54;100942.31;3587501;40;20572;-74
2021/07/30 01:05:25;;;;;;;8.20;2.77;;;;;;;15.28;63.52;100941.47;3587305;40;20233;-74
2021/07/30 01:07:50;;;;;;;5.67;2.97;;;;;;;15.47;63.13;100938.09;3588117;40;20236;-74
2021/07/30 01:10:15;;;;;;;8.97;3.13;;;;;;;15.45;62.45;100935.50;3588606;40;20229;-74
2021/07/30 01:12:41;;;;;;;7.60;3.00;;;;;;;15.34;63.08;100936.34;3588444;40;20306;-74
2021/07/30 01:15:06;;;;;;;8.93;3.47;;;;;;;15.46;63.03;100938.94;3588473;40;20670;-74
2021/07/30 01:17:31;;;;;;;6.83;3.37;;;;;;;15.66;61.58;100929.50;3588287;40;20245;-74
2021/07/30 01:19:57;;;;;;;8.00;3.20;;;;;;;15.62;61.90;100931.22;3588613;40;20294;-73
2021/07/30 01:22:23;;;;;;;8.03;3.40;;;;;;;15.82;61.65;100938.94;3588869;40;20647;-75
2021/07/30 01:24:52;;;;;;;7.97;3.07;;;;;;;15.70;61.47;100938.97;3589023;40;20233;-74
2021/07/30 01:27:18;;;;;;;9.70;3.57;;;;;;;15.89;61.31;100938.09;3588952;40;20229;-74
2021/07/30 01:29:43;;;;;;;7.63;3.20;;;;;;;15.61;61.53;100939.81;3588747;40;20632;-74
2021/07/30 01:32:09;;;;;;;9.60;3.30;;;;;;;15.80;61.49;100930.34;3588684;40;20229;-74
2021/07/30 01:34:34;;;;;;;7.43;2.93;;;;;;;15.81;61.18;100922.63;3588696;40;20275;-74
2021/07/30 01:37:00;;;;;;;8.40;3.03;;;;;;;15.79;61.14;100931.22;3589054;40;20220;-74
2021/07/30 01:39:25;;;;;;;8.93;3.53;;;;;;;15.71;60.71;100922.63;3587581;40;20539;-74
2021/07/30 01:41:50;;;;;;;7.10;2.80;;;;;;;15.71;61.20;100927.78;3588923;40;20302;-74
2021/07/30 01:44:16;;;;;;;7.13;3.10;;;;;;;15.44;62.33;100930.34;3588771;40;20229;-74
2021/07/30 01:46:41;;;;;;;7.10;3.37;;;;;;;15.09;63.20;100932.81;3588974;40;20226;-74
2021/07/30 01:49:07;;;;;;;7.37;3.27;;;;;;;15.18;63.15;100934.56;3588490;40;20244;-74
2021/07/30 01:51:32;;;;;;;5.67;3.00;;;;;;;15.27;63.05;100932.00;3588652;40;20271;-74
2021/07/30 01:53:57;;;;;;;7.43;2.80;;;;;;;14.97;63.61;100935.34;3588848;40;20225;-74
2021/07/30 01:56:22;;;;;;;8.93;4.00;;;;;;;14.97;63.58;100932.78;3588828;40;20225;-74
2021/07/30 01:58:48;;;;;;;6.33;3.70;;;;;;;14.77;64.42;100931.00;3579253;40;20240;-74
2021/07/30 02:01:13;;;;;;;9.53;4.03;;;;;;;14.86;64.49;100936.19;3588599;40;20232;-74
2021/07/30 02:03:38;;;;;;;8.40;4.00;;;;;;;14.59;64.91;100929.19;3588504;40;20225;-74
2021/07/30 02:06:08;;;;;;;7.73;5.20;;;;;;;14.71;64.78;100930.97;3588488;40;20245;-74
2021/07/30 02:08:34;;;;;;;10.17;5.13;;;;;;;14.55;65.34;100926.63;3588327;40;20278;-74
2021/07/30 02:11:00;;;;;;;12.23;5.83;;;;;;;14.46;65.45;100930.00;3588498;40;20306;-75
2021/07/30 02:16:09;;;;;;;12.10;6.20;;;;;;;14.34;66.19;100923.91;3588699;40;20221;-74
2021/07/30 02:18:35;;;;;;;8.80;6.83;;;;;;;14.60;64.99;100923.19;3588593;40;20648;-74
2021/07/30 02:21:00;;;;;;;10.77;6.30;;;;;;;14.43;65.30;100923.97;3588710;40;20217;-74
2021/07/30 02:23:25;;;;;;;11.13;6.70;;;;;;;14.54;65.14;100925.75;3588214;40;20244;-74
2021/07/30 02:25:50;;;;;;;12.13;6.70;;;;;;;14.50;65.03;100928.31;3588219;40;20825;-74
2021/07/30 02:28:16;;;;;;;10.73;6.17;;;;;;;14.51;65.15;100924.88;3588221;40;20244;-74
2021/07/30 02:30:41;;;;;;;10.07;5.53;;;;;;;14.62;64.54;100930.94;3579183;40;20225;-74
2021/07/30 02:33:06;;;;;;;10.20;5.80;;;;;;;14.62;64.50;100936.97;3588575;40;20504;-74
2021/07/30 02:35:31;;;;;;;9.83;5.43;;;;;;;14.64;64.92;100932.66;3588478;40;20237;-75
2021/07/30 02:37:57;;;;;;;7.83;5.30;;;;;;;14.48;64.62;100930.00;3588449;40;20255;-74
2021/07/30 02:40:22;;;;;;;10.43;5.70;;;;;;;14.50;64.69;100928.31;3588128;40;20225;-74
2021/07/30 02:42:47;;;;;;;9.17;5.23;;;;;;;14.26;65.29;100931.63;3588095;40;20322;-73
2021/07/30 02:45:13;;;;;;;11.47;5.10;;;;;;;14.39;64.65;100928.25;3585121;40;20221;-75
2021/07/30 02:47:38;;;;;;;11.07;5.40;;;;;;;14.20;65.29;100929.00;3588079;40;20661;-73
2021/07/30 02:50:04;;;;;;;7.50;4.30;;;;;;;14.06;65.59;100930.59;3588142;40;20225;-76
2021/07/30 02:52:30;;;;;;;13.13;4.97;;;;;;;14.06;66.27;100925.47;3588210;40;20217;-74
2021/07/30 02:54:55;;;;;;;9.87;5.00;;;;;;;14.11;65.71;100928.91;3588333;40;20225;-74
2021/07/30 02:57:21;;;;;;;10.47;4.60;;;;;;;14.04;65.92;100928.88;3587225;40;20241;-75
2021/07/30 02:59:46;;;;;;;9.90;4.40;;;;;;;13.91;66.38;100930.47;3588108;40;20615;-74
2021/07/30 03:02:11;;;;;;;8.80;4.10;;;;;;;14.02;66.42;100922.84;3588055;40;20319;-74
2021/07/30 03:04:36;;;;;;;10.20;4.57;;;;;;;14.16;65.60;100919.50;3588261;40;20230;-76
2021/07/30 03:07:02;;;;;;;9.93;4.13;;;;;;;14.16;65.83;100923.78;3587968;40;20326;-74
2021/07/30 03:09:27;;;;;;;8.13;4.27;;;;;;;14.28;64.86;100923.91;3587919;40;20605;-74
2021/07/30 03:11:52;;;;;;;8.00;3.93;;;;;;;14.02;65.69;100926.28;3588214;40;20229;-74
2021/07/30 03:14:18;;;;;;;11.07;4.23;;;;;;;14.31;64.80;100923.94;3588108;40;20221;-75
2021/07/30 03:16:43;;;;;;;6.67;3.90;;;;;;;14.52;64.38;100924.91;3589374;40;20225;-74
2021/07/30 03:19:08;;;;;;;9.17;4.20;;;;;;;14.19;65.18;100926.38;3591146;40;20304;-74
2021/07/30 03:21:33;;;;;;;5.20;3.43;;;;;;;14.15;65.84;100929.78;3590275;40;20213;-74
2021/07/30 03:23:58;;;;;;;11.57;4.47;;;;;;;14.30;65.43;100919.59;3588501;40;20550;-74
2021/07/30 03:26:24;;;;;;;7.13;4.27;;;;;;;14.26;65.34;100928.16;3588772;40;20222;-74
2021/07/30 03:28:49;;;;;;;9.40;4.17;;;;;;;14.15;65.58;100925.50;3588989;40;20295;-74
2021/07/30 03:31:15;;;;;;;7.70;4.20;;;;;;;13.88;66.87;100920.19;3590146;40;20616;-74
2021/07/30 03:33:40;;;;;;;7.50;3.50;;;;;;;14.08;65.53;100931.47;3589771;40;20232;-74
2021/07/30 03:36:06;;;;;;;9.93;4.63;;;;;;;13.75;66.86;100926.06;3589758;40;20217;-74
2021/07/30 03:38:31;;;;;;;10.77;4.43;;;;;;;13.68;67.16;100921.72;3589579;40;20576;-74
2021/07/30 03:41:02;;;;;;;9.50;4.47;;;;;;;13.94;66.83;100927.06;3590085;40;20775;-76
2021/07/30 03:43:27;;;;;;;8.30;4.47;;;;;;;13.84;67.20;100923.56;3589475;40;20221;-74
2021/07/30 03:45:52;;;;;;;8.07;4.33;;;;;;;13.94;66.55;100924.47;3589621;40;20224;-74
2021/07/30 03:48:17;;;;;;;8.83;4.30;;;;;;;13.90;67.02;100923.59;3589818;40;20233;-74
2021/07/30 03:50:43;;;;;;;13.67;4.93;;;;;;;13.51;68.04;100936.16;3589490;40;20228;-73
2021/07/30 03:53:08;;;;;;;8.17;4.10;;;;;;;13.68;67.21;100932.00;3589774;40;20224;-74
2021/07/30 03:55:33;;;;;;;7.73;4.37;;;;;;;13.82;67.51;100921.84;3589326;40;20221;-74
2021/07/30 03:57:58;;;;;;;10.03;4.27;;;;;;;13.85;67.27;100920.13;3589395;40;20616;-74
2021/07/30 04:00:24;;;;;;;8.40;4.37;;;;;;;13.90;67.12;100928.75;3589447;40;20233;-74
2021/07/30 04:02:49;;;;;;;9.97;4.33;;;;;;;13.66;67.22;100927.69;3589347;40;20241;-75
2021/07/30 04:05:14;;;;;;;5.80;3.83;;;;;;;13.55;67.81;100935.34;3589261;40;20256;-74
2021/07/30 04:07:39;;;;;;;8.13;3.87;;;;;;;13.52;68.26;100935.31;3589377;40;20248;-74
2021/07/30 04:10:05;;;;;;;9.77;4.40;;;;;;;13.45;68.62;100930.09;3589247;40;20236;-74
2021/07/30 04:12:30;;;;;;;8.00;4.10;;;;;;;13.54;68.63;100933.59;3589221;40;20225;-75
2021/07/30 04:14:55;;;;;;;7.53;3.90;;;;;;;13.41;68.54;100931.78;3589432;40;20229;-75
2021/07/30 04:17:21;;;;;;;6.97;3.73;;;;;;;13.53;68.56;100931.03;3579944;40;20218;-74
2021/07/30 04:19:46;;;;;;;5.37;3.57;;;;;;;13.41;68.61;100929.22;3589247;40;20697;-74
2021/07/30 04:22:12;;;;;;;6.57;4.17;;;;;;;13.65;68.55;100933.69;3589218;40;20277;-73
2021/07/30 04:24:38;;;;;;;7.63;4.17;;;;;;;13.65;68.35;100923.41;3580087;40;20516;-74
2021/07/30 04:27:03;;;;;;;7.73;4.17;;;;;;;13.64;68.52;100914.84;3589339;40;20233;-74
2021/07/30 04:29:29;;;;;;;8.83;4.10;;;;;;;13.74;67.96;100920.91;3589148;40;20770;-76
2021/07/30 04:31:54;;;;;;;10.47;4.50;;;;;;;13.87;67.82;100926.19;3594168;40;20224;-73
2021/07/30 04:34:20;;;;;;;12.10;4.40;;;;;;;13.87;67.63;100921.03;3588107;40;20273;-74
2021/07/30 04:36:45;;;;;;;7.53;3.73;;;;;;;13.75;67.72;100928.66;3588288;40;20227;-75
2021/07/30 04:39:10;;;;;;;9.07;4.70;;;;;;;13.88;68.04;100927.03;3589039;40;20249;-75
2021/07/30 04:41:36;;;;;;;7.37;4.10;;;;;;;14.12;66.90;100922.03;3588945;40;20229;-75
2021/07/30 04:44:01;;;;;;;8.03;4.37;;;;;;;14.22;66.46;100921.28;3588846;40;20229;-75
2021/07/30 04:46:26;;;;;;;10.13;4.97;;;;;;;14.24;66.80;100928.19;3588831;40;20225;-74
2021/07/30 04:48:52;;;;;;;8.97;4.60;;;;;;;14.31;66.61;100926.50;3588511;40;20245;-75
2021/07/30 04:51:18;;;;;;;9.03;4.43;;;;;;;14.52;66.42;100921.44;3588621;40;20213;-75
2021/07/30 04:53:43;;;;;;;8.90;4.00;;;;;;;14.39;66.67;100923.09;3589084;40;20240;-75
2021/07/30 04:56:16;;;;;;;11.03;5.47;;;;;;;14.70;65.87;100927.56;3588583;40;20221;-75
2021/07/30 04:58:42;;;;;;;11.50;4.90;;;;;;;15.14;64.56;100917.38;3588410;40;20245;-76
2021/07/30 05:01:07;;;;;;;11.53;4.77;;;;;;;15.47;62.66;100914.88;3588803;40;20272;-75
2021/07/30 05:03:32;;;;;;;8.37;5.30;;;;;;;15.55;62.42;100921.75;3588502;40;20225;-74
2021/07/30 05:05:57;;;;;;;11.53;5.60;;;;;;;15.69;62.79;100921.72;3588819;40;20236;-75
2021/07/30 05:08:23;;;;;;;11.17;5.93;;;;;;;15.80;61.76;100925.19;3588456;40;20252;-75
2021/07/30 05:10:49;;;;;;;10.43;5.23;;;;;;;15.89;61.12;100923.44;3588490;40;20489;-75
2021/07/30 05:13:15;;;;;;;9.77;5.17;;;;;;;15.98;61.09;100922.59;3588592;40;20263;-74
2021/07/30 05:15:40;;;;;;;11.67;5.80;;;;;;;16.06;60.77;100913.09;3588642;40;20229;-73
2021/07/30 05:18:05;;;;;;;13.93;6.17;;;;;;;16.05;60.85;100916.53;3588825;40;20240;-73
2021/07/30 05:20:30;;;;;;;8.40;5.50;;;;;;;16.15;61.39;100913.06;3588768;40;20326;-74
2021/07/30 05:22:56;;;;;;;11.93;6.23;;;;;;;16.23;60.66;100916.50;3589092;40;20232;-74
2021/07/30 05:25:21;;;;;;;10.97;5.80;;;;;;;16.35;61.05;100906.16;3588745;40;20225;-75
2021/07/30 05:27:46;;;;;;;10.90;6.43;;;;;;;16.48;60.13;100906.13;3585888;40;20314;-74
2021/07/30 05:30:12;;;;;;;12.83;6.47;;;;;;;16.54;59.92;100911.25;3589227;40;20507;-74
2021/07/30 05:32:37;;;;;;;15.30;6.00;;;;;;;16.62;59.88;100916.44;3589841;40;20314;-74
2021/07/30 05:35:03;;;;;;;10.00;5.60;;;;;;;16.68;59.73;100908.66;3589335;40;20592;-75
2021/07/30 05:37:28;;;;;;;10.87;5.53;;;;;;;16.84;59.98;100908.56;3589625;40;20228;-74
2021/07/30 05:39:53;;;;;;;11.93;5.43;;;;;;;16.89;60.38;100916.28;3589350;40;20217;-74
2021/07/30 05:42:19;;;;;;;11.00;6.17;;;;;;;17.01;59.12;100914.53;3589158;40;20709;-75
2021/07/30 05:44:44;;;;;;;13.77;5.93;;;;;;;17.05;59.37;100910.19;3589370;40;20230;-74
2021/07/30 05:47:09;;;;;;;11.53;5.77;;;;;;;17.13;59.48;100911.00;3589554;40;20214;-75
2021/07/30 05:49:35;;;;;;;14.23;5.97;;;;;;;17.23;58.99;100913.50;3588653;40;20244;-74
2021/07/30 05:52:00;;;;;;;13.80;6.03;;;;;;;17.18;59.11;100919.59;3589246;40;20229;-74
2021/07/30 05:54:25;;;;;;;14.27;5.93;;;;;;;17.19;59.97;100917.00;3589457;40;20228;-74
2021/07/30 05:56:55;;;;;;;15.23;6.70;;;;;;;17.19;59.74;100911.81;3588469;40;20306;-74
2021/07/30 05:59:21;;;;;;;9.63;5.77;;;;;;;17.17;60.85;100916.13;3588029;40;20728;-74
2021/07/30 06:01:46;;;;;;;11.03;6.10;;;;;;;17.53;59.32;100908.16;3588782;40;20245;-74
2021/07/30 06:04:12;;;;;;;14.47;6.63;;;;;;;17.56;59.25;100915.03;3588962;40;20232;-74
2021/07/30 06:06:37;;;;;;;16.43;6.30;;;;;;;17.80;58.42;100904.47;3588098;40;20319;-75
2021/07/30 06:09:02;;;;;;;11.67;5.93;;;;;;;17.92;58.51;100906.94;3588550;40;20248;-75
2021/07/30 06:11:27;;;;;;;10.23;5.70;;;;;;;17.89;58.62;100907.84;3588706;40;20229;-75
2021/07/30 06:13:52;;;;;;;10.23;5.80;;;;;;;17.88;58.53;100903.53;3589381;40;20552;-75
2021/07/30 06:16:18;;;;;;;13.50;6.50;;;;;;;17.97;58.90;100913.78;3590335;40;20232;-75
2021/07/30 06:18:43;;;;;;;13.53;6.23;;;;;;;18.23;57.44;100906.63;3588100;40;20249;-74
2021/07/30 06:21:08;;;;;;;12.10;6.30;;;;;;;18.27;57.70;100908.31;3587644;40;20229;-74
2021/07/30 06:23:34;;;;;;;12.40;6.00;;;;;;;18.28;58.23;100906.59;3588670;40;20229;-74
2021/07/30 06:25:59;;;;;;;11.33;6.30;;;;;;;18.39;57.82;100905.63;3588363;40;20560;-75
2021/07/30 06:28:24;;;;;;;12.43;6.50;;;;;;;18.67;56.59;100899.22;3588516;40;20248;-74
2021/07/30 06:30:50;;;;;;;12.40;5.87;;;;;;;18.70;56.92;100904.34;3588887;40;20611;-74
2021/07/30 06:33:17;;;;;;;12.93;6.53;;;;;;;18.72;56.40;100899.16;3587479;40;20307;-74
2021/07/30 06:35:42;;;;;;;11.87;6.53;;;;;;;18.62;57.54;100902.75;3588641;40;20221;-73
2021/07/30 06:38:08;;;;;;;11.30;6.23;;;;;;;18.92;56.45;100898.00;3588823;40;20244;-73
2021/07/30 06:40:33;;;;;;;15.97;6.90;;;;;;;18.99;56.19;100899.66;3588727;40;20298;-73
2021/07/30 06:42:58;;;;;;;11.47;6.50;;;;;;;19.00;56.76;100895.31;3589347;40;20221;-73
2021/07/30 06:45:23;;;;;;;10.67;5.63;;;;;;;18.98;56.73;100895.31;3589151;40;20315;-73
2021/07/30 06:47:49;;;;;;;10.97;6.40;;;;;;;19.16;56.04;100897.66;3588266;40;20229;-73
2021/07/30 06:50:14;;;;;;;15.20;6.47;;;;;;;19.12;56.40;100903.78;3588065;40;20237;-73
2021/07/30 06:52:39;;;;;;;11.83;7.10;;;;;;;19.22;55.96;100901.91;3588325;40;20662;-74
2021/07/30 06:55:05;;;;;;;10.13;6.20;;;;;;;19.26;56.58;100891.47;3588516;40;20225;-73
2021/07/30 06:57:30;;;;;;;11.10;6.10;;;;;;;19.41;56.38;100899.06;3588465;40;20484;-74
2021/07/30 06:59:57;;;;;;;10.60;5.87;;;;;;;19.41;56.04;100896.47;3588124;40;20350;-74
2021/07/30 07:02:22;;;;;;;14.77;7.53;;;;;;;19.47;55.32;100892.88;3589239;40;20245;-75
2021/07/30 07:04:48;;;;;;;13.03;6.67;;;;;;;19.50;55.41;100891.13;3589856;40;20233;-74
2021/07/30 07:07:13;;;;;;;13.30;6.70;;;;;;;19.53;55.44;100885.84;3580071;40;20248;-74
2021/07/30 07:09:38;;;;;;;11.17;6.30;;;;;;;19.55;54.90;100896.22;3589734;40;20232;-74
2021/07/30 07:12:04;;;;;;;13.57;7.10;;;;;;;19.61;55.13;100893.53;3589580;40;20600;-75
2021/07/30 07:14:30;;;;;;;10.00;6.00;;;;;;;19.53;55.75;100887.63;3589517;40;20600;-73
2021/07/30 07:16:55;;;;;;;11.50;5.93;;;;;;;19.74;55.13;100900.25;3589491;40;20501;-74
2021/07/30 07:19:20;;;;;;;13.77;6.43;;;;;;;19.84;55.50;100894.84;3589105;40;20244;-73
2021/07/30 07:21:46;;;;;;;12.37;6.10;;;;;;;19.94;55.63;100887.78;3589278;40;20655;-74
2021/07/30 07:24:11;;;;;;;11.60;6.00;;;;;;;20.15;54.83;100888.25;3589356;40;20229;-73
2021/07/30 07:26:38;;;;;;;10.40;5.90;;;;;;;20.09;54.24;100890.13;3589605;40;20238;-73
2021/07/30 07:29:05;;;;;;;11.20;5.80;;;;;;;20.26;54.08;100895.88;3589434;40;20243;-74
2021/07/30 07:31:30;;;;;;;13.93;6.43;;;;;;;20.17;54.08;100883.03;3589463;40;20224;-73
2021/07/30 07:33:56;;;;;;;12.43;6.10;;;;;;;20.27;53.76;100890.59;3589256;40;20225;-74
2021/07/30 07:36:21;;;;;;;11.63;6.10;;;;;;;20.39;53.27;100890.38;3589343;40;20225;-74
2021/07/30 07:38:46;;;;;;;12.13;6.27;;;;;;;20.41;53.64;100880.78;3588976;40;20252;-73
2021/07/30 07:41:12;;;;;;;12.33;5.90;;;;;;;20.40;51.91;100901.66;3589456;40;20315;-72
2021/07/30 07:43:38;;;;;;;10.47;5.90;;;;;;;20.34;52.96;100897.44;3589127;40;20306;-74
2021/07/30 07:46:03;;;;;;;10.17;6.00;;;;;;;20.39;53.38;100892.13;3589257;40;20222;-73
2021/07/30 07:48:28;;;;;;;12.83;6.20;;;;;;;20.52;52.91;100884.06;3589256;40;20628;-74
2021/07/30 07:50:54;;;;;;;13.90;6.10;;;;;;;20.54;52.99;100884.03;3588872;40;20217;-74
2021/07/30 07:53:19;;;;;;;11.03;5.90;;;;;;;20.82;52.18;100880.78;3588982;40;20275;-74
2021/07/30 07:55:45;;;;;;;8.87;5.13;;;;;;;20.83;51.73;100882.50;3589508;40;20592;-74
2021/07/30 07:58:10;;;;;;;11.53;5.70;;;;;;;20.86;51.10;100885.03;3589386;40;20248;-74
2021/07/30 08:00:36;;;;;;;10.60;5.50;;;;;;;20.73;50.40;100880.97;3588742;40;20221;-73
2021/07/30 08:03:01;;;;;;;10.50;5.40;;;;;;;20.83;51.53;100877.28;3592827;40;20237;-73
2021/07/30 08:05:27;;;;;;;11.10;5.00;;;;;;;21.01;50.93;100870.88;3588410;40;20224;-73
2021/07/30 08:07:53;;;;;;;11.57;5.90;;;;;;;21.09;50.86;100872.41;3589633;40;20260;-73
2021/07/30 08:10:18;;;;;;;11.60;5.40;;;;;;;21.16;49.89;100867.91;3589897;40;20232;-74
2021/07/30 08:12:43;;;;;;;10.17;5.10;;;;;;;21.18;49.59;100873.94;3592421;40;20233;-76
2021/07/30 08:15:09;;;;;;;8.63;5.07;;;;;;;21.20;49.64;100875.63;3593393;40;20220;-74
2021/07/30 08:17:35;;;;;;;11.07;5.37;;;;;;;21.15;49.97;100867.03;3593089;40;20237;-74
2021/07/30 08:20:00;;;;;;;8.93;4.73;;;;;;;21.27;49.42;100868.50;3590450;40;20519;-74
2021/07/30 08:22:26;;;;;;;9.43;4.60;;;;;;;21.32;50.21;100875.31;3589328;40;20229;-74
2021/07/30 08:24:51;;;;;;;6.67;4.07;;;;;;;21.67;48.17;100864.03;3589024;40;20258;-74
2021/07/30 08:27:16;;;;;;;7.80;4.10;;;;;;;21.90;46.70;100870.41;3588769;40;20225;-74
2021/07/30 08:29:42;;;;;;;7.27;3.83;;;;;;;21.93;47.39;100874.69;3588637;40;20630;-74
2021/07/30 08:32:08;;;;;;;6.53;4.27;;;;;;;21.96;47.80;100877.19;3588882;40;20232;-74
2021/07/30 08:34:36;;;;;;;5.07;3.80;;;;;;;22.10;47.25;100875.06;3588635;40;20306;-74
2021/07/30 08:37:01;;;;;;;8.97;4.03;;;;;;;22.52;45.53;100881.78;3588602;40;20232;-74
2021/07/30 08:39:27;;;;;;;8.30;3.70;;;;;;;22.63;45.44;100878.81;3588494;40;20237;-74
2021/07/30 08:41:58;;;;;;;5.10;3.50;;;;;;;22.69;44.37;100873.44;3588635;40;20314;-74
2021/07/30 08:44:23;;;;;;;7.10;3.97;;;;;;;22.67;45.41;100864.78;3588719;40;20237;-77
2021/07/30 08:46:49;;;;;;;5.77;3.60;;;;;;;22.82;45.05;100873.03;3588453;40;20380;-73
2021/07/30 08:49:14;;;;;;;6.17;3.87;;;;;;;22.82;43.87;100874.75;3588317;40;20317;-74
2021/07/30 08:51:43;;;;;;;7.87;3.27;;;;;;;22.79;42.83;100874.88;3588525;40;20232;-75
2021/07/30 08:54:08;;;;;;;7.47;3.37;;;;;;;22.71;44.51;100874.25;3588448;40;20225;-74
2021/07/30 08:56:37;;;;;;;7.20;3.57;;;;;;;23.02;43.13;100868.03;3588321;40;20274;-74
2021/07/30 08:59:03;;;;;;;5.27;3.70;;;;;;;23.19;43.44;100868.41;3588260;40;20788;-75
2021/07/30 09:01:28;;;;;;;7.23;4.00;;;;;;;23.40;43.12;100870.34;3588840;40;20263;-75
2021/07/30 09:03:53;;;;;;;9.50;3.80;;;;;;;23.42;43.29;100868.53;3588651;40;20695;-75
2021/07/30 09:06:21;;;;;;;5.67;2.87;;;;;;;23.51;42.15;100865.59;3589208;40;20241;-75
2021/07/30 09:09:02;;;;;;;6.27;3.60;;;;;;;23.63;42.56;100874.81;3588367;40;20255;-76
2021/07/30 09:11:29;;;;;;;4.00;3.23;;;;;;;23.53;42.78;100879.47;3588629;40;20248;-75
2021/07/30 09:13:56;;;;;;;6.93;3.10;;;;;;;23.49;42.30;100867.44;3588400;40;20233;-75
2021/07/30 09:16:22;;;;;;;5.90;2.93;;;;;;;23.39;42.63;100865.16;3589386;40;20225;-74
2021/07/30 09:18:47;;;;;;;6.90;3.50;;;;;;;23.39;42.02;100862.53;3589186;40;20237;-75
2021/07/30 09:21:19;;;;;;;8.80;3.50;;;;;;;23.30;42.85;100863.69;3589638;40;20283;-75
2021/07/30 09:23:53;;;;;;;6.77;3.50;;;;;;;23.25;42.56;100860.38;3588549;40;20221;-75
2021/07/30 09:26:39;;;;;;;7.30;3.30;;;;;;;23.43;41.70;100865.00;3588379;40;20225;-75
2021/07/30 09:29:11;;;;;;;3.73;2.67;;;;;;;23.42;41.80;100870.28;3588374;40;20625;-75
2021/07/30 09:31:56;;;;;;;5.97;3.13;;;;;;;23.49;41.59;100856.97;3588622;40;20225;-75
2021/07/30 09:34:26;;;;;;;4.53;2.80;;;;;;;23.47;41.66;100852.66;3588203;40;20229;-74
2021/07/30 09:37:00;;;;;;;7.43;3.20;;;;;;;23.46;40.75;100851.84;3588712;40;20236;-75
2021/07/30 09:39:38;;;;;;;7.60;3.13;;;;;;;23.42;42.10;100850.22;3588744;40;20571;-75
2021/07/30 09:42:08;;;;;;;7.97;3.00;;;;;;;23.70;41.90;100845.78;3587933;40;20252;-75
2021/07/30 09:44:54;;;;;;;4.40;3.10;;;;;;;23.94;40.53;100852.81;3586448;40;20234;-75
2021/07/30 09:47:25;;;;;;;4.73;3.23;;;;;;;23.99;41.20;100852.66;3587682;40;20237;-74
2021/07/30 09:49:54;;;;;;;5.47;2.73;;;;;;;23.93;42.04;100855.47;3587914;40;20237;-74
2021/07/30 09:52:25;;;;;;;4.57;2.97;;;;;;;23.96;41.61;100856.25;3588317;40;20232;-74
2021/07/30 09:54:58;;;;;;;6.03;3.10;;;;;;;24.22;40.72;100858.75;3587927;40;20592;-74
2021/07/30 09:57:34;;;;;;;6.30;3.00;;;;;;;24.10;38.99;100843.53;3587816;40;20315;-74
2021/07/30 10:00:03;;;;;;;6.53;2.83;;;;;;;24.07;40.43;100848.84;3587711;40;20232;-74
2021/07/30 10:02:30;;;;;;;6.03;3.00;;;;;;;24.17;39.42;100837.13;3587805;40;20251;-75
2021/07/30 10:04:55;;;;;;;4.33;2.70;;;;;;;24.36;39.59;100835.56;3587738;40;20260;-74
2021/07/30 10:07:22;;;;;;;6.40;2.93;;;;;;;24.54;38.98;100847.97;3587702;40;20290;-75
2021/07/30 10:10:08;;;;;;;6.37;2.90;;;;;;;24.48;38.15;100842.09;3587587;40;20237;-75
2021/07/30 10:12:36;;;;;;;5.63;3.17;;;;;;;24.47;37.94;100830.78;3587785;40;20880;-74
2021/07/30 10:15:03;;;;;;;4.07;2.93;;;;;;;24.47;38.78;100829.91;3575764;40;20782;-75
2021/07/30 10:17:42;;;;;;;5.00;2.90;;;;;;;24.68;39.32;100822.13;3586928;40;20225;-75
2021/07/30 10:20:09;;;;;;;5.68;2.80;;;;;;;24.98;37.98;100822.69;3587677;40;20228;-73
2021/07/30 10:22:48;;;;;;;5.95;2.67;;;;;;;25.00;36.54;100815.66;3587760;40;20232;-74
2021/07/30 10:25:34;;;;;;;6.40;3.00;;;;;;;24.71;37.92;100811.53;3587783;40;20224;-74
2021/07/30 10:28:08;;;;;;;6.57;2.90;;;;;;;24.87;36.89;100817.88;3587539;40;20247;-73
2021/07/30 10:30:59;;;;;;;8.17;3.10;;;;;;;24.57;37.56;100816.44;3587872;40;20237;-74
2021/07/30 10:33:30;;;;;;;6.27;2.93;;;;;;;24.59;38.70;100811.13;3587685;40;20225;-74
2021/07/30 10:35:57;;;;;;;6.53;3.00;;;;;;;24.79;37.69;100800.75;3588556;40;20232;-74
2021/07/30 10:38:24;;;;;;;6.60;2.77;;;;;;;24.95;37.31;100800.09;3589291;40;20248;-74
2021/07/30 10:40:58;;;;;;;5.57;2.58;;;;;;;25.10;37.15;100796.00;3588840;40;20499;-74
2021/07/30 10:43:24;;;;;;;4.18;2.40;;;;;;;25.25;37.02;100791.00;3589516;40;20235;-74
2021/07/30 10:46:04;;;;;;;6.38;3.05;;;;;;;25.40;36.17;100794.75;3588804;40;20217;-74
2021/07/30 10:48:30;;;;;;;5.90;2.85;;;;;;;25.16;35.40;100795.75;3589034;40;20233;-74
2021/07/30 10:50:57;;;;;;;3.33;2.30;;;;;;;24.95;35.91;100799.25;3588418;40;20473;-75
2021/07/30 10:53:36;;;;;;;5.50;2.47;;;;;;;24.95;37.03;100780.91;3588551;40;20267;-74
2021/07/30 10:56:22;;;;;;;4.95;2.55;;;;;;;25.00;37.28;100781.56;3588809;40;20237;-75
2021/07/30 10:58:50;;;;;;;4.95;2.65;;;;;;;25.15;36.47;100788.81;3580975;40;20245;-74
2021/07/30 11:01:21;;;;;;;7.38;3.13;;;;;;;24.95;35.97;100781.75;3588581;40;20240;-73
2021/07/30 11:03:52;;;;;;;6.53;2.80;;;;;;;24.80;35.93;100782.34;3588721;40;20626;-74
2021/07/30 11:06:21;;;;;;;4.47;2.50;;;;;;;24.70;37.21;100781.03;3587198;40;20801;-73
2021/07/30 11:09:01;;;;;;;5.47;2.90;;;;;;;24.78;36.44;100776.34;3586726;40;20585;-73
2021/07/30 11:11:45;;;;;;;4.20;2.77;;;;;;;24.67;36.13;100781.13;3587660;40;20248;-73
2021/07/30 11:14:13;;;;;;;6.77;2.80;;;;;;;24.74;36.69;100782.63;3584565;40;78537;-74
2021/07/30 11:16:45;;;;;;;5.67;2.43;;;;;;;24.71;36.34;100779.22;3586777;40;20237;-74
2021/07/30 11:19:12;;;;;;;4.07;2.50;;;;;;;24.80;37.26;100779.75;3587771;40;20256;-73
2021/07/30 11:21:38;;;;;;;5.03;2.45;;;;;;;25.10;36.59;100777.66;3588237;40;20233;-74
2021/07/30 11:24:05;;;;;;;4.65;2.67;;;;;;;25.36;36.78;100775.69;3588535;40;20236;-74